Time;durP1;ratioP1;P1;durP2;ratioP2;P2;SDS_P1;SDS_P2;PMS_P1;PMS_P2;Temp;Humidity;BMP_temperature;BMP_pressure;BME280_temperature;BME280_humidity;BME280_pressure;Samples;Min_cycle;Max_cycle;Signal;HPM_P1;HPM_P2
2021/08/17 05:02:21;;;;;;;;;16.50;14.00;;;;;16.59;62.24;102018.06;5742356;22;45581;-79
2021/08/17 05:04:46;;;;;;;;;13.25;11.25;;;;;16.60;62.30;102018.00;4998870;28;45438;-80
2021/08/17 05:07:12;;;;;;;;;12.75;12.00;;;;;16.59;62.35;102005.66;5000104;28;45249;-79
2021/08/17 05:09:37;;;;;;;;;14.75;13.50;;;;;16.61;62.49;102022.38;5002844;28;45324;-79
2021/08/17 05:12:03;;;;;;;;;15.25;10.50;;;;;16.60;62.46;102019.78;5002921;28;45228;-80
2021/08/17 05:14:28;;;;;;;;;17.50;13.75;;;;;16.65;62.69;102018.69;4985329;28;45420;-80
2021/08/17 05:16:53;;;;;;;;;10.75;10.00;;;;;16.72;62.77;102013.13;5002863;28;45505;-79
2021/08/17 05:19:19;;;;;;;;;14.75;12.75;;;;;16.76;62.74;102014.75;5001763;28;45364;-79
2021/08/17 05:21:44;;;;;;;;;17.25;14.50;;;;;16.79;62.03;102019.91;4995688;28;45282;-78
2021/08/17 05:24:10;;;;;;;;;5.50;2.00;;;;;16.79;62.57;102024.38;5002704;28;45312;-77
2021/08/17 05:26:36;;;;;;;;;20.75;14.75;;;;;16.80;62.57;102028.75;5002660;28;45357;-78
2021/08/17 05:29:01;;;;;;;;;14.25;13.25;;;;;16.79;62.57;102035.84;4998648;28;46456;-78
2021/08/17 05:31:26;;;;;;;;;11.50;11.50;;;;;16.78;62.52;102034.13;5000720;28;45386;-77
2021/08/17 05:33:52;;;;;;;;;19.25;12.00;;;;;16.78;62.55;102028.81;4995695;28;45477;-76
2021/08/17 05:36:17;;;;;;;;;15.25;10.00;;;;;16.81;62.60;102042.00;5001789;28;45348;-77
2021/08/17 05:38:42;;;;;;;;;14.75;13.50;;;;;16.81;62.75;102043.78;5002111;28;45352;-77
2021/08/17 05:41:08;;;;;;;;;19.25;13.00;;;;;16.81;62.51;102042.00;5000273;28;45419;-81
2021/08/17 05:43:33;;;;;;;;;17.25;11.75;;;;;16.79;62.57;102053.59;5002472;28;45529;-82
2021/08/17 05:46:03;;;;;;;;;14.75;12.50;;;;;16.77;62.75;102048.31;5002294;28;45447;-82
2021/08/17 05:48:28;;;;;;;;;13.25;10.50;;;;;16.79;62.79;102051.78;4997273;28;46521;-82
2021/08/17 05:50:53;;;;;;;;;22.25;14.25;;;;;16.74;62.44;102048.47;5000738;28;45836;-81
2021/08/17 05:53:19;;;;;;;;;13.50;11.00;;;;;16.72;62.59;102045.84;5002286;28;45212;-76
2021/08/17 05:55:44;;;;;;;;;16.00;13.75;;;;;16.75;62.74;102047.53;5002229;28;45564;-75
2021/08/17 05:58:09;;;;;;;;;18.75;14.50;;;;;16.74;62.37;102051.13;5001490;28;45470;-80
2021/08/17 06:00:35;;;;;;;;;14.00;12.25;;;;;16.74;62.54;102048.47;5001508;28;45354;-83
2021/08/17 06:03:01;;;;;;;;;13.25;11.75;;;;;16.77;62.34;102050.97;4977386;28;46579;-83
2021/08/17 06:05:27;;;;;;;;;18.75;13.00;;;;;16.76;62.57;102058.09;4993919;28;45955;-83
2021/08/17 06:07:52;;;;;;;;;13.00;10.00;;;;;16.73;62.84;102060.00;4982432;28;47767;-83
2021/08/17 06:10:19;;;;;;;;;14.50;13.25;;;;;16.71;62.88;102053.88;5000682;28;45400;-84
2021/08/17 06:12:44;;;;;;;;;15.00;13.50;;;;;16.73;63.14;102052.03;5000929;28;45296;-83
2021/08/17 06:15:12;;;;;;;;;13.50;11.75;;;;;16.79;63.31;102057.09;5000864;28;45226;-84
2021/08/17 06:17:38;;;;;;;;;19.50;14.00;;;;;16.85;62.97;102062.19;5000177;28;45273;-84
2021/08/17 06:20:05;;;;;;;;;10.25;10.25;;;;;16.91;63.27;102066.41;5000210;28;45665;-83
2021/08/17 06:22:31;;;;;;;;;13.25;10.25;;;;;16.97;63.24;102058.19;5001566;28;45412;-83
2021/08/17 06:24:57;;;;;;;;;12.25;9.00;;;;;17.11;63.35;102059.44;4999163;28;45557;-83
2021/08/17 06:27:22;;;;;;;;;14.25;11.75;;;;;17.25;62.47;102060.69;5001234;28;45477;-75
2021/08/17 06:29:47;;;;;;;;;14.00;12.00;;;;;17.36;62.56;102062.94;4989618;28;45400;-76
2021/08/17 06:32:13;;;;;;;;;12.50;12.25;;;;;17.40;62.27;102057.44;5000294;28;45408;-76
2021/08/17 06:34:38;;;;;;;;;13.00;12.50;;;;;17.51;62.20;102064.94;4993056;28;45543;-76
2021/08/17 06:37:03;;;;;;;;;16.00;11.25;;;;;17.57;62.50;102068.28;5000751;28;46260;-76
2021/08/17 06:39:29;;;;;;;;;13.00;11.25;;;;;17.66;62.36;102063.44;4981266;28;45310;-76
2021/08/17 06:41:54;;;;;;;;;9.50;9.50;;;;;17.84;62.25;102058.28;4997224;28;45512;-76
2021/08/17 06:44:19;;;;;;;;;14.50;11.75;;;;;18.00;61.85;102061.13;4993423;28;45821;-76
2021/08/17 06:46:46;;;;;;;;;13.25;9.75;;;;;18.13;61.19;102063.25;5000745;28;46498;-76
2021/08/17 06:49:12;;;;;;;;;13.25;12.00;;;;;18.25;61.26;102063.69;4982925;28;45781;-76
2021/08/17 06:51:37;;;;;;;;;14.25;10.00;;;;;18.32;60.96;102063.31;4999474;28;45322;-76
2021/08/17 06:54:03;;;;;;;;;12.75;10.75;;;;;18.35;60.77;102066.78;4996819;28;46096;-76
2021/08/17 06:56:28;;;;;;;;;11.25;9.75;;;;;18.32;60.44;102067.78;4983044;28;47072;-76
2021/08/17 06:58:53;;;;;;;;;13.50;13.50;;;;;18.23;60.16;102058.41;4988456;28;45453;-76
2021/08/17 07:01:19;;;;;;;;;11.50;11.25;;;;;18.17;60.75;102061.31;5004198;28;45267;-76
2021/08/17 07:03:44;;;;;;;;;12.50;11.00;;;;;18.06;60.73;102059.13;4999634;28;45397;-76
2021/08/17 07:06:10;;;;;;;;;14.25;12.50;;;;;17.94;60.94;102061.41;4980056;28;47188;-76
2021/08/17 07:08:38;;;;;;;;;14.00;11.00;;;;;17.82;60.83;102067.25;4998187;28;45305;-77
2021/08/17 07:11:03;;;;;;;;;17.75;12.75;;;;;17.69;61.19;102058.91;4999218;28;45461;-76
2021/08/17 07:13:29;;;;;;;;;12.75;11.25;;;;;17.66;61.20;102057.25;4999716;28;45271;-76
2021/08/17 07:15:55;;;;;;;;;11.50;11.50;;;;;17.62;61.76;102060.97;5000594;28;46599;-76
2021/08/17 07:18:21;;;;;;;;;14.50;12.75;;;;;17.52;61.69;102061.38;5000140;28;45408;-76
2021/08/17 07:20:46;;;;;;;;;11.75;11.50;;;;;17.47;61.82;102062.47;4980234;28;45507;-76
2021/08/17 07:23:12;;;;;;;;;12.00;10.75;;;;;17.45;62.61;102065.19;4982457;28;47529;-76
2021/08/17 07:25:38;;;;;;;;;13.25;11.50;;;;;17.51;62.56;102070.25;5000319;28;45337;-76
2021/08/17 07:28:04;;;;;;;;;13.50;11.50;;;;;17.62;62.94;102066.28;4981887;28;45731;-76
2021/08/17 07:30:29;;;;;;;;;9.25;6.50;;;;;17.74;62.03;102065.78;5002350;28;45641;-76
2021/08/17 07:32:55;;;;;;;;;9.75;7.75;;;;;17.87;62.32;102062.59;5002752;28;45419;-76
2021/08/17 07:35:20;;;;;;;;;11.25;11.00;;;;;17.97;61.76;102071.91;4982193;28;47038;-76
2021/08/17 07:37:48;;;;;;;;;11.75;11.00;;;;;17.97;61.60;102074.56;4988750;28;45325;-76
2021/08/17 07:40:15;;;;;;;;;10.00;9.25;;;;;17.98;62.13;102075.41;4999575;28;45432;-76
2021/08/17 07:42:42;;;;;;;;;13.00;11.50;;;;;17.98;61.88;102065.63;4996115;28;45540;-76
2021/08/17 07:45:09;;;;;;;;;11.25;9.50;;;;;18.06;61.80;102069.75;5000268;28;45535;-76
2021/08/17 07:47:35;;;;;;;;;9.50;7.75;;;;;18.20;61.78;102072.72;4998764;28;45583;-76
2021/08/17 07:50:00;;;;;;;;;12.00;10.00;;;;;18.33;62.04;102069.50;4999595;28;45423;-76
2021/08/17 07:52:25;;;;;;;;;12.00;9.50;;;;;18.46;61.46;102074.28;4982434;28;47000;-76
2021/08/17 07:54:51;;;;;;;;;11.75;11.00;;;;;18.49;61.24;102069.69;4998815;28;45412;-76
2021/08/17 07:57:16;;;;;;;;;11.25;9.00;;;;;18.62;61.08;102069.97;4994838;28;45431;-76
2021/08/17 07:59:42;;;;;;;;;11.75;9.00;;;;;18.69;61.61;102069.69;5000437;28;45341;-76
2021/08/17 08:02:07;;;;;;;;;12.50;9.50;;;;;18.70;61.02;102072.28;4980516;28;47056;-76
2021/08/17 08:04:32;;;;;;;;;14.50;12.50;;;;;18.73;60.98;102071.28;4999409;28;45379;-76
2021/08/17 08:06:58;;;;;;;;;10.25;8.50;;;;;18.78;60.91;102077.25;4981217;28;45326;-76
2021/08/17 08:09:24;;;;;;;;;12.25;9.75;;;;;18.88;60.98;102072.38;4982111;28;45325;-76
2021/08/17 08:11:50;;;;;;;;;11.75;10.25;;;;;18.93;60.56;102070.34;4996105;28;45431;-76
2021/08/17 08:14:15;;;;;;;;;14.50;12.50;;;;;19.00;60.70;102071.78;4994798;28;46407;-76
2021/08/17 08:16:41;;;;;;;;;14.50;11.75;;;;;19.09;60.27;102069.59;4996445;28;45274;-76
2021/08/17 08:19:07;;;;;;;;;12.00;11.75;;;;;19.16;60.43;102073.69;4999742;28;45289;-76
2021/08/17 08:21:32;;;;;;;;;10.00;10.00;;;;;19.25;60.27;102068.88;4997538;28;45591;-76
2021/08/17 08:23:59;;;;;;;;;13.50;11.25;;;;;19.31;60.29;102077.44;4999553;28;45255;-76
2021/08/17 08:26:24;;;;;;;;;8.00;8.00;;;;;19.33;59.96;102072.06;4980239;28;45361;-75
2021/08/17 08:28:50;;;;;;;;;12.00;9.00;;;;;19.39;60.33;102077.06;4987354;28;45390;-76
2021/08/17 08:31:15;;;;;;;;;10.75;7.25;;;;;19.43;59.59;102081.28;4993970;28;45269;-76
2021/08/17 08:33:40;;;;;;;;;9.50;8.00;;;;;19.47;59.55;102074.03;4994372;28;48523;-76
2021/08/17 08:36:08;;;;;;;;;11.00;8.00;;;;;19.41;59.29;102082.34;4980198;28;45389;-75
2021/08/17 08:38:34;;;;;;;;;8.50;8.50;;;;;19.27;59.10;102083.00;4997757;28;45340;-76
2021/08/17 08:40:59;;;;;;;;;8.25;7.25;;;;;19.14;59.64;102077.38;4999303;28;45698;-76
2021/08/17 08:43:24;;;;;;;;;10.50;8.00;;;;;19.05;59.62;102079.56;4990505;28;46542;-76
2021/08/17 08:45:50;;;;;;;;;10.75;8.50;;;;;19.07;59.84;102079.47;4999042;28;45368;-76
2021/08/17 08:48:16;;;;;;;;;9.50;8.25;;;;;19.18;60.44;102089.66;4999564;28;45499;-76
2021/08/17 08:50:43;;;;;;;;;9.00;8.50;;;;;19.25;59.78;102082.22;4981886;28;46049;-76
2021/08/17 08:53:10;;;;;;;;;8.25;7.50;;;;;19.27;59.35;102086.53;4993296;28;45617;-76
2021/08/17 08:55:36;;;;;;;;;9.50;6.75;;;;;19.19;59.61;102089.56;4990072;28;45320;-76
2021/08/17 08:58:01;;;;;;;;;11.00;8.75;;;;;19.16;59.57;102092.34;4973665;28;45544;-76
2021/08/17 09:00:27;;;;;;;;;9.25;9.00;;;;;19.19;59.89;102080.69;4999729;28;45328;-76
2021/08/17 09:02:52;;;;;;;;;8.25;7.75;;;;;19.26;59.57;102081.28;4995766;28;46200;-76
2021/08/17 09:05:20;;;;;;;;;11.00;9.25;;;;;19.38;59.85;102082.47;4999551;28;45502;-76
2021/08/17 09:07:46;;;;;;;;;12.50;7.75;;;;;19.40;58.76;102084.13;4999615;28;45436;-76
2021/08/17 09:10:21;;;;;;;;;8.75;7.25;;;;;19.38;59.33;102086.03;4998953;28;45858;-76
2021/08/17 09:12:50;;;;;;;;;10.25;7.50;;;;;19.46;59.46;102082.94;4995210;28;46357;-74
2021/08/17 09:15:19;;;;;;;;;9.00;8.75;;;;;19.58;59.26;102075.31;4986497;28;45408;-76
2021/08/17 09:18:06;;;;;;;;;9.50;7.00;;;;;19.64;59.28;102070.50;4984441;28;45525;-76
2021/08/17 09:20:36;;;;;;;;;8.75;7.50;;;;;19.76;58.97;102077.03;4999000;28;45592;-76
2021/08/17 09:23:20;;;;;;;;;11.50;6.25;;;;;19.79;58.71;102074.19;4996385;28;46199;-76
2021/08/17 09:25:46;;;;;;;;;10.50;8.00;;;;;19.77;57.69;102065.41;4991678;28;45650;-76
2021/08/17 09:28:30;;;;;;;;;8.50;8.25;;;;;19.75;57.44;102069.97;4993674;28;45364;-75
2021/08/17 09:30:57;;;;;;;;;11.75;10.00;;;;;19.65;57.80;102066.03;4990486;28;45419;-76
2021/08/17 09:33:34;;;;;;;;;8.50;7.25;;;;;19.64;58.34;102066.97;4998387;28;45341;-76
2021/08/17 09:36:00;;;;;;;;;5.75;5.50;;;;;19.68;58.30;102069.41;4998731;28;45536;-76
2021/08/17 09:38:30;;;;;;;;;10.75;8.50;;;;;19.74;57.31;102060.25;4999416;28;45256;-76
2021/08/17 09:40:56;;;;;;;;;9.00;9.00;;;;;19.73;57.12;102055.00;4998510;28;45486;-76
2021/08/17 09:43:26;;;;;;;;;8.50;7.75;;;;;19.68;57.23;102061.41;4988521;28;46398;-77
2021/08/17 09:45:52;;;;;;;;;10.75;8.50;;;;;19.62;57.60;102068.88;4981006;28;45260;-76
2021/08/17 09:48:30;;;;;;;;;9.00;8.50;;;;;19.61;58.26;102064.47;4994396;28;45301;-76
2021/08/17 09:50:56;;;;;;;;;10.75;9.00;;;;;19.58;57.77;102056.63;4996752;28;45516;-76
2021/08/17 09:53:22;;;;;;;;;6.75;6.50;;;;;19.56;58.24;102065.56;4999572;28;45433;-75
2021/08/17 09:55:52;;;;;;;;;10.00;9.75;;;;;19.55;57.96;102060.31;4999422;28;45840;-75
2021/08/17 09:58:18;;;;;;;;;8.25;8.25;;;;;19.51;57.65;102061.38;4994744;28;45459;-75
2021/08/17 10:00:45;;;;;;;;;10.00;8.75;;;;;19.50;58.00;102055.22;5000734;28;45467;-75
2021/08/17 10:03:14;;;;;;;;;10.25;8.00;;;;;19.51;58.70;102054.25;5001856;28;45525;-75
2021/08/17 10:05:41;;;;;;;;;8.00;6.50;;;;;19.54;58.66;102058.56;5001309;28;45586;-75
2021/08/17 10:08:10;;;;;;;;;8.50;8.00;;;;;19.58;58.27;102059.31;5001585;28;45273;-75
2021/08/17 10:10:35;;;;;;;;;9.25;8.00;;;;;19.65;57.61;102055.38;4987920;28;45355;-75
2021/08/17 10:13:02;;;;;;;;;6.25;6.25;;;;;19.67;57.88;102053.50;4997377;28;46603;-75
2021/08/17 10:15:27;;;;;;;;;9.00;8.00;;;;;19.76;57.12;102058.34;4995017;28;45324;-75
2021/08/17 10:17:58;;;;;;;;;7.00;6.75;;;;;19.84;56.56;102049.09;4999558;28;45743;-75
2021/08/17 10:20:24;;;;;;;;;9.50;7.50;;;;;19.87;56.28;102054.28;4992247;28;45646;-75
2021/08/17 10:22:49;;;;;;;;;6.75;6.50;;;;;19.87;56.73;102048.94;4978791;28;45538;-76
2021/08/17 10:25:17;;;;;;;;;11.25;6.00;;;;;19.90;56.27;102048.78;4990867;28;46917;-75
2021/08/17 10:27:43;;;;;;;;;7.50;6.25;;;;;19.98;56.42;102040.34;4996116;28;45257;-75
2021/08/17 10:30:23;;;;;;;;;8.50;5.75;;;;;20.07;56.13;102044.38;4975487;28;46479;-75
2021/08/17 10:32:55;;;;;;;;;7.25;5.75;;;;;20.17;56.43;102034.97;4998662;28;46235;-75
2021/08/17 10:35:27;;;;;;;;;9.75;9.00;;;;;20.30;56.04;102034.28;4983208;28;45326;-75
2021/08/17 10:38:11;;;;;;;;;6.50;6.50;;;;;20.39;54.96;102028.47;5001078;28;45414;-75
2021/08/17 10:40:48;;;;;;;;;5.75;5.75;;;;;20.41;54.27;102029.22;4994450;28;45432;-75
2021/08/17 10:43:13;;;;;;;;;6.00;6.00;;;;;20.44;55.04;102026.41;4982154;28;48633;-75
2021/08/17 10:45:49;;;;;;;;;7.25;7.25;;;;;20.50;53.22;102027.84;4983033;28;45991;-75
2021/08/17 10:51:37;;;;;;;;;8.75;8.00;;;;;20.30;53.02;102020.94;4996381;28;45460;-76
2021/08/17 10:54:02;;;;;;;;;11.00;8.75;;;;;20.30;53.64;102026.25;4987139;28;47101;-75
2021/08/17 10:56:30;;;;;;;;;5.00;5.00;;;;;20.37;53.86;102024.16;4988892;28;45380;-75
2021/08/17 10:58:57;;;;;;;;;9.75;8.25;;;;;20.44;53.70;102018.38;4992128;28;45481;-75
2021/08/17 11:01:34;;;;;;;;;10.50;9.00;;;;;20.54;52.80;102026.75;4983412;28;46483;-75
2021/08/17 11:04:06;;;;;;;;;8.75;8.00;;;;;20.52;51.84;102025.13;4999510;28;46598;-75
2021/08/17 11:06:54;;;;;;;;;8.50;8.00;;;;;20.42;52.33;102024.75;4980138;28;45304;-75
2021/08/17 11:09:38;;;;;;;;;13.00;9.00;;;;;20.32;52.72;102016.38;4998642;28;45487;-75
2021/08/17 11:12:08;;;;;;;;;9.75;7.25;;;;;20.26;51.93;102022.91;4998491;28;45691;-75
2021/08/17 11:14:39;;;;;;;;;8.25;6.75;;;;;20.21;52.62;102025.84;5000626;28;45449;-75
2021/08/17 11:17:11;;;;;;;;;8.00;7.00;;;;;20.21;53.39;102023.16;5000530;28;45605;-75
2021/08/17 11:19:39;;;;;;;;;10.50;7.75;;;;;20.26;53.34;102025.59;4995104;28;45288;-75
2021/08/17 11:22:09;;;;;;;;;9.25;8.00;;;;;20.28;52.84;102017.47;5001187;28;45262;-75
2021/08/17 11:24:46;;;;;;;;;10.00;8.00;;;;;20.30;52.92;102027.13;4999191;28;46538;-75
2021/08/17 11:27:13;;;;;;;;;7.50;7.25;;;;;20.33;53.11;102021.63;4995629;28;45469;-75
2021/08/17 11:29:53;;;;;;;;;6.50;4.00;;;;;20.39;52.33;102019.56;5000701;28;45274;-75
2021/08/17 11:32:34;;;;;;;;;8.75;7.75;;;;;20.43;53.13;102015.78;4982862;28;47236;-75
2021/08/17 11:35:14;;;;;;;;;8.25;8.00;;;;;20.52;53.36;102014.44;4981994;28;47316;-75
2021/08/17 11:37:43;;;;;;;;;8.00;7.00;;;;;20.62;53.06;102012.94;5000226;28;45479;-75
2021/08/17 11:40:10;;;;;;;;;11.00;9.75;;;;;20.73;52.93;102015.03;4995514;28;45475;-75
2021/08/17 11:42:37;;;;;;;;;7.50;6.00;;;;;20.79;52.73;102014.66;4993773;28;45508;-75
2021/08/17 11:45:08;;;;;;;;;9.00;8.25;;;;;20.81;52.33;102017.28;4995801;28;46155;-75
2021/08/17 11:47:35;;;;;;;;;6.75;6.75;;;;;20.78;51.60;102009.44;4999717;28;45325;-75
2021/08/17 11:50:04;;;;;;;;;7.75;7.00;;;;;20.74;51.78;102000.72;4984491;28;45309;-75
2021/08/17 11:52:41;;;;;;;;;9.75;8.00;;;;;20.78;51.82;102001.41;5000304;28;45411;-75
2021/08/17 11:55:10;;;;;;;;;13.25;6.75;;;;;20.77;52.14;101997.00;4998291;28;45488;-75
2021/08/17 11:57:36;;;;;;;;;7.25;7.00;;;;;20.86;52.41;102006.31;4999106;28;45455;-75
2021/08/17 12:00:08;;;;;;;;;8.00;6.75;;;;;20.94;52.24;102004.06;5000231;28;45372;-75
2021/08/17 12:02:33;;;;;;;;;8.00;8.00;;;;;21.01;52.25;101991.25;5000069;28;45265;-75
2021/08/17 12:05:04;;;;;;;;;7.25;7.25;;;;;21.10;51.97;101993.41;4999574;28;46075;-75
2021/08/17 12:07:31;;;;;;;;;11.50;9.00;;;;;21.17;52.05;102001.03;4991278;28;45500;-75
2021/08/17 12:10:12;;;;;;;;;7.00;7.00;;;;;21.17;51.87;101990.34;5000047;28;45280;-75
2021/08/17 12:13:00;;;;;;;;;9.50;8.25;;;;;21.17;51.82;102001.91;4992879;28;45297;-75
2021/08/17 12:15:45;;;;;;;;;4.75;4.25;;;;;21.16;51.49;101999.34;5000028;28;45560;-75
2021/08/17 12:18:16;;;;;;;;;10.00;8.25;;;;;21.13;51.01;101993.22;4994919;28;45734;-76
2021/08/17 12:20:52;;;;;;;;;6.00;6.00;;;;;21.02;50.95;101999.19;5000021;28;45269;-75
2021/08/17 12:23:30;;;;;;;;;3.00;2.00;;;;;20.89;50.48;101993.63;4997990;28;45517;-75
2021/08/17 12:26:15;;;;;;;;;7.50;6.25;;;;;20.72;50.58;102001.78;4999978;28;46275;-75
2021/08/17 12:28:43;;;;;;;;;7.25;5.25;;;;;20.56;51.11;101998.16;4998576;28;45163;-75
2021/08/17 12:31:13;;;;;;;;;8.00;6.75;;;;;20.52;51.78;101993.06;4982191;28;45447;-75
2021/08/17 12:33:53;;;;;;;;;5.00;5.00;;;;;20.53;51.48;101984.97;4998560;28;45525;-75
2021/08/17 12:36:23;;;;;;;;;5.50;5.50;;;;;20.53;51.29;101984.09;4999085;28;45578;-75
2021/08/17 12:38:50;;;;;;;;;6.00;6.00;;;;;20.57;51.75;101983.84;4996246;28;45320;-75
2021/08/17 12:41:30;;;;;;;;;5.75;5.00;;;;;20.63;51.59;101977.28;4999701;28;45235;-75
2021/08/17 12:43:56;;;;;;;;;6.25;6.00;;;;;20.69;51.49;101968.09;4998313;28;45411;-75
2021/08/17 12:46:21;;;;;;;;;5.75;5.75;;;;;20.77;51.27;101968.50;4995334;28;46466;-74
2021/08/17 12:48:47;;;;;;;;;5.25;4.25;;;;;20.83;50.60;101972.63;4996971;28;45295;-75
2021/08/17 12:51:20;;;;;;;;;7.00;5.25;;;;;20.83;51.30;101967.28;4999754;28;45324;-74
2021/08/17 12:53:45;;;;;;;;;5.75;5.75;;;;;20.87;50.90;101975.97;4981193;28;47005;-75
2021/08/17 12:56:11;;;;;;;;;6.00;6.00;;;;;20.89;50.85;101971.44;4981163;28;48278;-75
2021/08/17 12:58:36;;;;;;;;;6.00;6.00;;;;;20.95;50.83;101970.19;4981854;28;45670;-75
2021/08/17 13:01:02;;;;;;;;;5.25;4.75;;;;;20.99;51.13;101961.06;4999089;28;45325;-75
2021/08/17 13:03:27;;;;;;;;;5.00;5.00;;;;;21.00;49.66;101954.75;4987794;28;45700;-75
2021/08/17 13:05:52;;;;;;;;;4.00;4.00;;;;;20.91;49.56;101962.34;4981413;28;47782;-75
2021/08/17 13:08:18;;;;;;;;;6.25;6.25;;;;;20.76;50.51;101949.88;4981422;28;45350;-75
2021/08/17 13:10:43;;;;;;;;;5.00;5.00;;;;;20.71;50.56;101952.81;4977527;28;45432;-75
2021/08/17 13:13:08;;;;;;;;;3.50;2.50;;;;;20.58;50.58;101960.66;4999462;28;45444;-75
2021/08/17 13:15:34;;;;;;;;;5.25;4.00;;;;;20.40;50.99;101966.09;4998836;28;45374;-75
2021/08/17 13:17:59;;;;;;;;;5.00;4.00;;;;;20.30;51.02;101964.88;4997042;28;45261;-75
2021/08/17 13:20:25;;;;;;;;;5.75;4.75;;;;;20.22;51.53;101960.81;4989499;28;45870;-75
2021/08/17 13:22:52;;;;;;;;;4.25;4.25;;;;;20.23;51.35;101970.56;4980746;28;46093;-74
2021/08/17 13:25:19;;;;;;;;;5.25;4.00;;;;;20.18;52.13;101956.59;4999050;28;45408;-75
2021/08/17 13:27:45;;;;;;;;;3.00;3.00;;;;;20.19;51.77;101953.00;4999171;28;45467;-75
2021/08/17 13:30:11;;;;;;;;;5.75;5.00;;;;;20.20;52.03;101954.69;5001620;28;45253;-75
2021/08/17 13:32:37;;;;;;;;;5.00;4.00;;;;;20.29;52.08;101947.16;5000418;28;45370;-74
2021/08/17 13:35:06;;;;;;;;;4.50;4.25;;;;;20.37;52.14;101942.25;4984766;28;46086;-75
2021/08/17 13:37:31;;;;;;;;;5.25;5.00;;;;;20.48;51.73;101933.63;4995703;28;45226;-75
2021/08/17 13:39:56;;;;;;;;;6.50;5.00;;;;;20.55;51.73;101934.13;5000765;28;45202;-75
2021/08/17 13:42:25;;;;;;;;;3.75;3.25;;;;;20.62;51.61;101932.81;5002417;28;45306;-75
2021/08/17 13:44:52;;;;;;;;;3.00;3.00;;;;;20.62;50.94;101927.47;4984482;28;46033;-75
2021/08/17 13:47:18;;;;;;;;;6.75;5.50;;;;;20.64;51.22;101928.25;4996971;28;45407;-75
2021/08/17 13:49:43;;;;;;;;;2.50;2.50;;;;;20.67;50.71;101920.06;4999530;28;45551;-75
2021/08/17 13:52:09;;;;;;;;;5.00;3.00;;;;;20.72;51.38;101921.63;4980885;28;47196;-75
2021/08/17 13:54:34;;;;;;;;;5.00;3.25;;;;;20.80;51.50;101924.72;5001853;28;45460;-75
2021/08/17 13:57:00;;;;;;;;;5.00;4.00;;;;;20.86;50.96;101924.38;5002005;28;45344;-75
2021/08/17 13:59:25;;;;;;;;;3.25;3.25;;;;;20.89;51.16;101920.66;5002398;28;45420;-75
2021/08/17 14:01:51;;;;;;;;;6.50;4.00;;;;;20.94;50.76;101921.22;5000836;28;45566;-75
2021/08/17 14:04:17;;;;;;;;;4.00;4.00;;;;;20.96;50.89;101929.16;4983876;28;47314;-74
2021/08/17 14:06:44;;;;;;;;;2.50;2.00;;;;;20.97;50.53;101923.72;5002101;28;45558;-75
2021/08/17 14:09:10;;;;;;;;;3.50;3.50;;;;;20.98;50.41;101921.91;5002078;28;45457;-75
2021/08/17 14:11:38;;;;;;;;;4.00;4.00;;;;;21.00;50.68;101925.34;4989633;28;46249;-75
2021/08/17 14:14:08;;;;;;;;;4.75;3.00;;;;;21.01;50.79;101919.94;4983339;28;48571;-74
2021/08/17 14:16:35;;;;;;;;;4.75;3.00;;;;;21.07;51.08;101925.88;5001275;28;45448;-75
2021/08/17 14:19:01;;;;;;;;;3.00;3.00;;;;;21.14;50.38;101925.44;5001609;28;45408;-74
2021/08/17 14:21:26;;;;;;;;;3.25;3.25;;;;;21.19;50.67;101926.94;5001019;28;45429;-75
2021/08/17 14:23:52;;;;;;;;;4.25;4.25;;;;;21.25;50.56;101922.13;5001474;28;46358;-75
2021/08/17 14:26:27;;;;;;;;;1.50;0.25;;;;;21.23;48.90;101923.16;5001661;28;45269;-75
2021/08/17 14:28:55;;;;;;;;;4.25;4.00;;;;;21.11;49.70;101925.59;5001906;28;45265;-75
2021/08/17 14:31:22;;;;;;;;;4.25;4.00;;;;;21.08;49.70;101928.47;5000295;28;45427;-75
2021/08/17 14:33:48;;;;;;;;;7.00;5.50;;;;;21.06;49.95;101921.50;4983759;28;45247;-75
2021/08/17 14:36:14;;;;;;;;;6.50;4.25;;;;;21.00;50.59;101925.34;5001190;28;45302;-75
2021/08/17 14:38:40;;;;;;;;;5.00;5.00;;;;;20.94;50.73;101923.06;5001793;28;45447;-75
2021/08/17 14:41:06;;;;;;;;;5.50;3.50;;;;;20.95;50.42;101917.63;4981810;28;47142;-75
2021/08/17 14:43:32;;;;;;;;;4.75;4.00;;;;;20.94;50.73;101915.88;5001578;28;46528;-75
2021/08/17 14:45:57;;;;;;;;;3.50;3.00;;;;;20.94;50.35;101912.38;5001002;28;45325;-75
2021/08/17 14:48:22;;;;;;;;;8.50;4.50;;;;;20.94;51.24;101920.38;4999735;28;46009;-75
2021/08/17 14:50:48;;;;;;;;;5.75;5.25;;;;;20.95;50.75;101911.41;4997557;28;45443;-75
2021/08/17 14:53:14;;;;;;;;;4.25;4.25;;;;;20.98;51.18;101917.44;5001355;28;47385;-75
2021/08/17 14:55:41;;;;;;;;;4.25;3.25;;;;;21.01;50.86;101919.09;5001526;28;45314;-75
2021/08/17 14:58:07;;;;;;;;;5.25;3.00;;;;;20.98;50.65;101913.91;4994442;28;45511;-75
2021/08/17 15:00:32;;;;;;;;;5.75;4.25;;;;;20.99;50.96;101921.81;4995747;28;45509;-75
2021/08/17 15:02:57;;;;;;;;;3.75;3.75;;;;;21.00;51.07;101922.69;5000284;28;47278;-75
2021/08/17 15:05:24;;;;;;;;;7.75;4.25;;;;;20.95;51.16;101917.63;5001052;28;45179;-74
2021/08/17 15:07:50;;;;;;;;;2.00;2.00;;;;;20.89;51.15;101918.81;5000191;28;45222;-75
2021/08/17 15:10:16;;;;;;;;;2.00;2.00;;;;;20.78;51.48;101922.13;4982093;28;47224;-75
2021/08/17 15:12:42;;;;;;;;;3.75;3.75;;;;;20.65;51.51;101919.31;5000966;28;45560;-75
2021/08/17 15:15:08;;;;;;;;;2.75;2.75;;;;;20.48;52.09;101909.59;4980196;28;46169;-75
2021/08/17 15:17:34;;;;;;;;;4.00;4.00;;;;;20.39;52.55;101916.31;5005516;28;45565;-75
2021/08/17 15:20:08;;;;;;;;;4.50;4.50;;;;;20.37;52.58;101904.88;4963636;28;47476;-75
2021/08/17 15:22:42;;;;;;;;;3.50;3.50;;;;;20.40;52.95;101912.69;4966373;28;48399;-75
2021/08/17 15:25:10;;;;;;;;;3.25;3.25;;;;;20.41;52.94;101911.75;5000992;28;45180;-75
2021/08/17 15:27:36;;;;;;;;;3.75;3.00;;;;;20.39;53.19;101915.44;5000382;28;45471;-75
2021/08/17 15:30:04;;;;;;;;;1.75;1.75;;;;;20.30;52.89;101911.47;4996128;28;45386;-75
2021/08/17 15:32:30;;;;;;;;;3.00;3.00;;;;;20.23;53.03;101911.84;4999920;28;45409;-75
2021/08/17 15:35:00;;;;;;;;;3.25;3.00;;;;;20.18;53.41;101915.69;4987752;28;45700;-75
2021/08/17 15:37:25;;;;;;;;;1.75;1.75;;;;;20.14;53.80;101909.69;5000536;28;45222;-75
2021/08/17 15:39:51;;;;;;;;;4.00;3.00;;;;;20.15;54.04;101906.03;4999906;28;45380;-75
2021/08/17 15:42:17;;;;;;;;;4.25;4.25;;;;;20.22;53.92;101904.75;5000843;28;46141;-75
2021/08/17 15:44:43;;;;;;;;;4.50;3.00;;;;;20.31;54.22;101894.53;5000589;28;45538;-75
2021/08/17 15:47:08;;;;;;;;;4.75;4.75;;;;;20.40;54.16;101902.00;4999328;28;45162;-75
2021/08/17 15:49:33;;;;;;;;;4.00;4.00;;;;;20.48;54.39;101895.38;4981651;28;45455;-75
2021/08/17 15:51:59;;;;;;;;;3.75;3.25;;;;;20.51;53.59;101898.75;4999776;28;45344;-75
2021/08/17 15:54:24;;;;;;;;;4.00;3.75;;;;;20.46;53.79;101896.34;5000358;28;45504;-75
2021/08/17 15:56:49;;;;;;;;;5.25;4.75;;;;;20.44;53.88;101892.91;5000164;28;45451;-75
2021/08/17 15:59:15;;;;;;;;;6.00;4.25;;;;;20.45;54.29;101894.59;4981996;28;45907;-75
2021/08/17 16:01:40;;;;;;;;;5.00;4.25;;;;;20.50;54.27;101888.13;4999590;28;46249;-75
2021/08/17 16:04:06;;;;;;;;;4.50;3.50;;;;;20.52;53.74;101895.09;5000127;28;45308;-75
2021/08/17 16:06:33;;;;;;;;;4.75;4.75;;;;;20.44;53.80;101878.69;4999668;28;45286;-75
2021/08/17 16:08:58;;;;;;;;;4.25;3.50;;;;;20.43;54.22;101885.81;4999505;28;45591;-75
2021/08/17 16:11:24;;;;;;;;;5.50;5.00;;;;;20.42;53.89;101894.75;4999935;28;45474;-75
2021/08/17 16:13:50;;;;;;;;;4.75;4.00;;;;;20.41;54.29;101884.19;4982696;28;45819;-75
2021/08/17 16:16:19;;;;;;;;;3.00;3.00;;;;;20.43;54.26;101890.28;4997584;28;45640;-75
2021/08/17 16:18:45;;;;;;;;;5.50;4.75;;;;;20.41;54.28;101887.72;4970017;28;46481;-75
2021/08/17 16:21:12;;;;;;;;;6.00;4.00;;;;;20.45;54.62;101889.25;4999994;28;46027;-75
2021/08/17 16:23:39;;;;;;;;;5.75;4.00;;;;;20.48;53.70;101892.69;4982355;28;45364;-74
2021/08/17 16:26:08;;;;;;;;;3.00;3.00;;;;;20.44;54.32;101892.91;4999410;28;45341;-75